createdAt,value
2022-10-07T00:01:08.081Z,2.42
2022-10-07T00:06:12.139Z,2.65
2022-10-07T00:11:15.310Z,2.45
2022-10-07T00:16:18.108Z,2.45
2022-10-07T00:21:16.775Z,2.05
2022-10-07T00:31:17.275Z,2.20
2022-10-07T00:36:17.784Z,2.53
2022-10-07T00:41:20.798Z,2.70
2022-10-07T00:46:35.148Z,2.35
2022-10-07T00:51:34.091Z,2.33
2022-10-07T00:56:31.293Z,2.00
2022-10-07T01:01:27.994Z,2.45
2022-10-07T01:06:24.661Z,2.35
2022-10-07T01:11:52.079Z,3.38
2022-10-07T01:17:23.662Z,2.13
2022-10-07T01:22:50.839Z,2.10
2022-10-07T01:28:00.718Z,2.30
2022-10-07T01:33:02.974Z,2.72
2022-10-07T01:38:04.479Z,1.92
2022-10-07T01:43:01.506Z,2.17
2022-10-07T01:47:59.034Z,1.85
2022-10-07T01:53:15.294Z,2.08
2022-10-07T01:58:18.542Z,2.20
2022-10-07T02:04:14.777Z,2.33
2022-10-07T02:09:35.778Z,2.38
2022-10-07T02:14:46.101Z,2.13
2022-10-07T02:19:48.276Z,2.03
2022-10-07T02:24:47.723Z,2.00
2022-10-07T02:29:47.747Z,1.95
2022-10-07T02:34:46.116Z,2.83
2022-10-07T02:39:43.594Z,2.42
2022-10-07T02:45:06.234Z,2.28
2022-10-07T02:50:07.784Z,1.95
2022-10-07T02:55:08.239Z,2.20
2022-10-07T03:00:10.909Z,2.00
2022-10-07T03:05:09.282Z,2.00
2022-10-07T03:10:08.959Z,2.13
2022-10-07T03:15:05.914Z,1.88
2022-10-07T03:20:02.274Z,2.65
2022-10-07T03:24:58.654Z,2.25
2022-10-07T03:29:55.658Z,1.70
2022-10-07T03:34:52.929Z,2.10
2022-10-07T03:39:50.069Z,2.13
2022-10-07T03:44:50.060Z,2.53
2022-10-07T03:49:46.418Z,2.30
2022-10-07T03:54:43.516Z,2.80
2022-10-07T03:59:40.808Z,3.13
2022-10-07T04:04:37.858Z,2.17
2022-10-07T04:09:34.202Z,2.25
2022-10-07T04:14:30.546Z,1.80
2022-10-07T04:19:26.914Z,2.40
2022-10-07T04:24:23.461Z,3.05
2022-10-07T04:29:19.968Z,2.30
2022-10-07T04:34:16.339Z,2.25
2022-10-07T04:39:13.339Z,2.50
2022-10-07T04:44:09.793Z,2.40
2022-10-07T04:49:06.170Z,2.22
2022-10-07T04:54:02.727Z,3.13
2022-10-07T04:58:59.101Z,2.05
2022-10-07T05:03:55.479Z,2.45
2022-10-07T05:08:54.189Z,3.67
2022-10-07T05:18:48.805Z,2.20
2022-10-07T05:23:45.602Z,2.22
2022-10-07T05:28:44.052Z,2.58
2022-10-07T05:33:41.366Z,1.92
2022-10-07T05:38:38.265Z,1.83
2022-10-07T05:43:38.253Z,2.63
2022-10-07T05:48:39.202Z,2.55
2022-10-07T05:53:36.753Z,2.08
2022-10-07T05:58:35.837Z,2.58
2022-10-07T06:03:33.377Z,2.10
2022-10-07T06:08:29.882Z,2.33
2022-10-07T06:13:26.273Z,3.15
2022-10-07T06:18:22.733Z,2.05
2022-10-07T06:23:19.103Z,2.17
2022-10-07T06:28:17.343Z,2.25
2022-10-07T06:33:13.888Z,2.47
2022-10-07T06:38:10.301Z,1.60
2022-10-07T06:43:06.654Z,2.22
2022-10-07T06:48:03.045Z,2.00
2022-10-07T06:52:59.933Z,2.08
2022-10-07T06:57:56.437Z,2.03
2022-10-07T07:02:52.794Z,1.90
2022-10-07T07:07:49.620Z,2.20
2022-10-07T07:12:46.737Z,2.25
2022-10-07T07:17:43.722Z,2.03
2022-10-07T07:22:41.372Z,1.65
2022-10-07T07:27:37.775Z,1.65
2022-10-07T07:32:34.108Z,2.30
2022-10-07T07:37:31.660Z,1.65
2022-10-07T07:42:28.088Z,1.17
2022-10-07T07:47:24.548Z,1.95
2022-10-07T07:52:20.917Z,1.75
2022-10-07T07:57:17.332Z,2.53
2022-10-07T08:02:13.732Z,1.85
2022-10-07T08:07:13.111Z,1.70
2022-10-07T08:12:09.464Z,2.40
2022-10-07T08:17:05.802Z,1.92
2022-10-07T08:22:02.189Z,2.22
2022-10-07T08:26:58.614Z,1.98
2022-10-07T08:31:55.025Z,1.92
2022-10-07T08:36:52.351Z,1.95
2022-10-07T08:42:13.516Z,1.48
2022-10-07T08:47:13.220Z,2.05
2022-10-07T08:52:25.185Z,1.63
2022-10-07T08:57:42.731Z,2.20
2022-10-07T09:03:08.760Z,2.55
2022-10-07T09:08:14.265Z,2.20
2022-10-07T09:13:20.054Z,3.03
2022-10-07T09:18:20.156Z,2.40
2022-10-07T09:23:16.607Z,2.83
2022-10-07T09:28:16.342Z,2.00
2022-10-07T09:33:20.027Z,2.38
2022-10-07T09:38:42.803Z,1.80
2022-10-07T09:43:43.103Z,2.47
2022-10-07T09:48:52.716Z,2.15
2022-10-07T09:54:04.673Z,1.50
2022-10-07T09:59:20.565Z,1.70
2022-10-07T10:04:19.612Z,1.02
2022-10-07T10:09:23.908Z,1.23
2022-10-07T10:14:29.098Z,1.08
2022-10-07T10:19:27.365Z,2.10
2022-10-07T10:24:43.385Z,1.55
2022-10-07T10:29:55.345Z,1.58
2022-10-07T10:35:30.889Z,1.50
2022-10-07T10:40:36.256Z,1.70
2022-10-07T10:46:08.863Z,2.25
2022-10-07T10:51:13.384Z,1.17
2022-10-07T10:56:20.288Z,2.67
2022-10-07T11:01:29.219Z,1.92
2022-10-07T11:06:28.520Z,2.20
2022-10-07T11:11:26.641Z,1.42
2022-10-07T11:21:37.938Z,2.53
2022-10-07T11:26:43.775Z,1.80
2022-10-07T11:31:44.547Z,1.75
2022-10-07T11:36:56.702Z,1.80
2022-10-07T11:42:07.829Z,1.00
2022-10-07T11:47:11.160Z,1.42
2022-10-07T11:52:18.231Z,1.75
2022-10-07T11:57:31.632Z,1.67
2022-10-07T12:02:28.111Z,1.52
2022-10-07T12:07:33.500Z,0.95
2022-10-07T12:12:42.520Z,2.05
2022-10-07T12:17:54.125Z,2.47
2022-10-07T12:23:22.458Z,1.40
2022-10-07T12:28:24.009Z,1.50
2022-10-07T12:33:37.523Z,1.48
2022-10-07T12:38:33.842Z,1.67
2022-10-07T12:43:47.949Z,1.50
2022-10-07T12:49:08.796Z,2.50
2022-10-07T12:54:16.303Z,2.20
2022-10-07T12:59:37.577Z,2.08
2022-10-07T13:04:36.691Z,1.70
2022-10-07T13:10:16.427Z,1.38
2022-10-07T13:15:26.625Z,1.65
2022-10-07T13:20:34.599Z,1.60
2022-10-07T13:25:31.656Z,1.48
2022-10-07T13:30:41.097Z,1.30
2022-10-07T13:35:39.641Z,2.30
2022-10-07T13:40:36.400Z,1.35
2022-10-07T13:45:41.102Z,2.03
2022-10-07T13:50:37.994Z,1.40
2022-10-07T13:55:35.908Z,1.60
2022-10-07T14:05:31.297Z,1.53
2022-10-07T14:15:35.288Z,1.35
2022-10-07T14:20:48.948Z,1.80
2022-10-07T14:25:48.046Z,1.50
2022-10-07T14:31:05.512Z,1.48
2022-10-07T14:36:20.272Z,1.35
2022-10-07T14:41:21.921Z,1.98
2022-10-07T14:46:21.582Z,2.65
2022-10-07T14:51:24.438Z,1.73
2022-10-07T14:56:31.316Z,1.70
2022-10-07T15:01:29.691Z,1.55
2022-10-07T15:06:26.327Z,1.33
2022-10-07T15:11:22.722Z,1.27
2022-10-07T15:16:26.157Z,1.08
2022-10-07T15:21:23.193Z,1.92
2022-10-07T15:26:23.474Z,1.53
2022-10-07T15:31:19.969Z,1.45
2022-10-07T15:36:17.835Z,1.73
2022-10-07T15:41:36.986Z,1.50
2022-10-07T15:46:34.644Z,1.85
2022-10-07T15:51:31.699Z,1.30
2022-10-07T15:56:28.441Z,1.98
2022-10-07T16:01:28.074Z,1.95
2022-10-07T16:06:26.715Z,1.23
2022-10-07T16:11:24.247Z,1.55
2022-10-07T16:16:23.813Z,1.98
2022-10-07T16:21:22.613Z,1.83
2022-10-07T16:26:21.415Z,1.20
2022-10-07T16:31:17.895Z,2.25
2022-10-07T16:36:15.507Z,1.40
2022-10-07T16:41:12.002Z,1.77
2022-10-07T16:46:13.428Z,1.20
2022-10-07T16:51:11.762Z,1.65
2022-10-07T16:56:08.584Z,1.50
2022-10-07T17:01:09.760Z,1.63
2022-10-07T17:06:08.168Z,1.75
2022-10-07T17:11:05.286Z,2.05
2022-10-07T17:16:01.666Z,2.08
2022-10-07T17:20:59.315Z,2.40
2022-10-07T17:25:56.074Z,1.13
2022-10-07T17:30:52.599Z,1.98
2022-10-07T17:35:49.075Z,1.67
2022-10-07T17:40:45.729Z,3.38
2022-10-07T17:45:42.095Z,2.30
2022-10-07T17:50:39.087Z,1.98
2022-10-07T17:55:35.423Z,1.92
2022-10-07T18:00:32.124Z,2.05
2022-10-07T18:05:28.778Z,1.80
2022-10-07T18:10:25.818Z,2.38
2022-10-07T18:15:23.321Z,2.40
2022-10-07T18:20:21.746Z,1.90
2022-10-07T18:30:14.482Z,2.05
2022-10-07T18:35:10.972Z,1.80
2022-10-07T18:40:07.767Z,2.40
2022-10-07T18:45:04.636Z,1.80
2022-10-07T18:50:01.057Z,2.70
2022-10-07T18:54:57.456Z,1.80
2022-10-07T18:59:53.969Z,2.25
2022-10-07T19:04:50.327Z,2.72
2022-10-07T19:09:46.652Z,2.10
2022-10-07T19:14:43.180Z,2.08
2022-10-07T19:19:40.861Z,2.40
2022-10-07T19:24:56.148Z,2.53
2022-10-07T19:29:52.649Z,3.22
2022-10-07T19:34:48.964Z,2.42
2022-10-07T19:39:45.488Z,1.83
2022-10-07T19:44:41.856Z,2.38
2022-10-07T19:49:38.409Z,3.30
2022-10-07T19:54:36.223Z,2.88
2022-10-07T19:59:32.563Z,2.37
2022-10-07T20:04:28.947Z,3.00
2022-10-07T20:09:25.520Z,2.78
2022-10-07T20:14:22.064Z,2.53
2022-10-07T20:19:19.560Z,2.60
2022-10-07T20:24:17.015Z,3.40
2022-10-07T20:29:16.123Z,2.97
2022-10-07T20:34:15.773Z,3.35
2022-10-07T20:39:34.143Z,3.30
2022-10-07T20:44:30.674Z,3.63
2022-10-07T20:49:28.816Z,2.95
2022-10-07T20:54:26.929Z,3.22
2022-10-07T20:59:25.328Z,3.40
2022-10-07T21:04:22.499Z,3.60
2022-10-07T21:09:20.208Z,4.13
2022-10-07T21:14:17.689Z,3.70
2022-10-07T21:19:15.044Z,3.67
2022-10-07T21:24:11.477Z,3.60
2022-10-07T21:29:08.413Z,3.80
2022-10-07T21:34:07.868Z,3.55
2022-10-07T21:39:05.674Z,3.80
2022-10-07T21:44:04.268Z,3.77
2022-10-07T21:54:00.095Z,3.33
2022-10-07T21:58:57.865Z,3.63
2022-10-07T22:03:59.633Z,3.77
2022-10-07T22:08:56.582Z,3.25
2022-10-07T22:13:55.099Z,4.03
2022-10-07T22:18:53.687Z,3.58
2022-10-07T22:28:47.506Z,3.55
2022-10-07T22:33:44.923Z,3.60
2022-10-07T22:38:41.277Z,3.97
2022-10-07T22:43:44.190Z,3.50
2022-10-07T22:48:43.127Z,3.35
2022-10-07T22:53:41.132Z,3.47
2022-10-07T22:58:39.146Z,3.80
2022-10-07T23:03:38.439Z,3.72
2022-10-07T23:08:36.480Z,4.15
2022-10-07T23:13:34.570Z,4.55
2022-10-07T23:18:31.365Z,3.10
2022-10-07T23:23:28.865Z,3.70
2022-10-07T23:28:26.188Z,2.60
2022-10-07T23:33:22.732Z,3.53
2022-10-07T23:38:19.067Z,3.38
2022-10-07T23:43:16.204Z,3.72
2022-10-07T23:48:14.939Z,3.28
2022-10-07T23:53:11.300Z,3.00
2022-10-07T23:58:08.267Z,3.63
